createdAt,value
2017-01-08T00:00:00.369Z,47.97
2017-01-08T00:02:12.744Z,48
2017-01-08T00:04:25.064Z,48.01
2017-01-08T00:06:37.483Z,48.03
2017-01-08T00:08:50.079Z,48.02
2017-01-08T00:11:02.556Z,48.04
2017-01-08T00:13:15.102Z,48.04
2017-01-08T00:15:27.483Z,48.04
2017-01-08T00:17:39.731Z,48.05
2017-01-08T00:19:47.268Z,48.06
2017-01-08T00:21:59.939Z,48.06
2017-01-08T00:24:12.347Z,48.08
2017-01-08T00:26:24.969Z,48.07
2017-01-08T00:28:39.681Z,48.08
2017-01-08T00:30:54.178Z,48.1
2017-01-08T00:33:06.594Z,48.11
2017-01-08T00:35:19.041Z,48.12
2017-01-08T00:37:34.033Z,48.14
2017-01-08T00:39:48.954Z,48.16
2017-01-08T00:42:06.288Z,48.17
2017-01-08T00:44:17.414Z,48.16
2017-01-08T00:46:27.576Z,48.16
2017-01-08T00:48:42.487Z,48.18
2017-01-08T00:50:57.084Z,48.21
2017-01-08T00:53:10.811Z,48.23
2017-01-08T00:55:28.712Z,48.26
2017-01-08T00:57:44.759Z,48.27
2017-01-08T00:59:58.515Z,48.29
2017-01-08T01:02:13.611Z,48.3
2017-01-08T01:06:41.652Z,48.32
2017-01-08T01:08:55.367Z,48.33
2017-01-08T01:11:08.712Z,48.33
2017-01-08T01:13:23.791Z,48.34
2017-01-08T01:15:36.383Z,48.34
2017-01-08T01:17:49.810Z,48.34
2017-01-08T01:20:03.068Z,48.35
2017-01-08T01:22:18.097Z,48.37
2017-01-08T01:24:32.185Z,48.39
2017-01-08T01:26:45.090Z,48.38
2017-01-08T01:28:57.698Z,48.41
2017-01-08T01:31:10.513Z,48.41
2017-01-08T01:33:23.100Z,48.42
2017-01-08T01:35:32.621Z,48.43
2017-01-08T01:37:45.287Z,48.44
2017-01-08T01:39:59.130Z,48.44
2017-01-08T01:42:17.191Z,48.46
2017-01-08T01:44:32.495Z,48.47
2017-01-08T01:46:42.132Z,48.48
2017-01-08T01:48:57.466Z,48.49
2017-01-08T01:51:11.017Z,48.5
2017-01-08T01:53:24.532Z,48.5
2017-01-08T01:55:38.405Z,48.5
2017-01-08T01:57:51.051Z,48.49
2017-01-08T02:00:07.681Z,48.51
2017-01-08T02:02:22.174Z,48.52
2017-01-08T02:04:36.482Z,48.53
2017-01-08T02:06:51.325Z,48.55
2017-01-08T02:09:03.961Z,48.56
2017-01-08T02:11:13.145Z,48.59
2017-01-08T02:13:26.274Z,48.6
2017-01-08T02:15:38.938Z,48.6
2017-01-08T02:17:51.464Z,48.61
2017-01-08T02:20:04.287Z,48.6
2017-01-08T02:22:17.243Z,48.6
2017-01-08T02:24:34.231Z,48.61
2017-01-08T02:26:46.671Z,48.63
2017-01-08T02:28:54.678Z,48.65
2017-01-08T02:31:10.035Z,48.65
2017-01-08T02:33:25.996Z,48.65
2017-01-08T02:35:39.449Z,48.65
2017-01-08T02:37:54.663Z,48.66
2017-01-08T02:40:07.253Z,48.67
2017-01-08T02:42:25.520Z,48.68
2017-01-08T02:44:37.955Z,48.7
2017-01-08T02:46:51.564Z,48.71
2017-01-08T02:49:04.167Z,48.7
2017-01-08T02:51:16.764Z,48.71
2017-01-08T02:53:24.118Z,48.72
2017-01-08T02:55:36.467Z,48.74
2017-01-08T02:57:52.486Z,48.74
2017-01-08T03:00:04.937Z,48.76
2017-01-08T03:02:17.369Z,48.76
2017-01-08T03:04:29.906Z,48.78
2017-01-08T03:06:43.360Z,48.78
2017-01-08T03:08:45.906Z,48.79
2017-01-08T03:10:58.287Z,48.79
2017-01-08T03:13:10.671Z,48.8
2017-01-08T03:15:23.011Z,48.81
2017-01-08T03:17:35.333Z,48.82
2017-01-08T03:19:48.862Z,48.81
2017-01-08T03:22:01.202Z,48.83
2017-01-08T03:24:13.970Z,48.84
2017-01-08T03:26:26.574Z,48.84
2017-01-08T03:28:38.975Z,48.84
2017-01-08T03:30:51.407Z,48.85
2017-01-08T03:33:04.109Z,48.87
2017-01-08T03:35:16.505Z,48.88
2017-01-08T03:37:28.947Z,48.88
2017-01-08T03:39:41.380Z,48.9
2017-01-08T03:41:50.742Z,48.9
2017-01-08T03:44:03.173Z,48.9
2017-01-08T03:46:16.613Z,48.92
2017-01-08T03:48:28.904Z,48.93
2017-01-08T03:50:41.307Z,48.93
2017-01-08T03:52:56.744Z,48.93
2017-01-08T03:55:09.054Z,48.94
2017-01-08T03:57:21.550Z,48.96
2017-01-08T03:59:34.216Z,48.95
2017-01-08T04:01:51.325Z,48.96
2017-01-08T04:04:04.348Z,48.97
2017-01-08T04:06:17.687Z,48.97
2017-01-08T04:08:32.260Z,48.98
2017-01-08T04:10:44.649Z,48.98
2017-01-08T04:12:57.189Z,49
2017-01-08T04:15:09.575Z,49.01
2017-01-08T04:17:21.951Z,49.01
2017-01-08T04:19:34.435Z,49.02
2017-01-08T04:21:46.638Z,49.02
2017-01-08T04:23:59.364Z,49.03
2017-01-08T04:26:07.862Z,49.05
2017-01-08T04:28:20.279Z,49.05
2017-01-08T04:30:32.668Z,49.05
2017-01-08T04:32:45.090Z,49.08
2017-01-08T04:34:57.490Z,49.09
2017-01-08T04:37:11.493Z,49.1
2017-01-08T04:39:19.136Z,49.1
2017-01-08T04:41:31.658Z,49.11
2017-01-08T04:43:44.238Z,49.12
2017-01-08T04:46:00.534Z,49.13
2017-01-08T04:48:12.987Z,49.13
2017-01-08T04:50:25.525Z,49.15
2017-01-08T04:52:38.009Z,49.15
2017-01-08T04:54:50.385Z,49.16
2017-01-08T04:57:04.065Z,49.17
2017-01-08T04:59:17.484Z,49.18
2017-01-08T05:01:31.858Z,49.18
2017-01-08T05:03:46.229Z,49.19
2017-01-08T05:05:58.619Z,49.19
2017-01-08T05:08:12.237Z,49.21
2017-01-08T05:10:25.653Z,49.21
2017-01-08T05:12:38.386Z,49.22
2017-01-08T05:14:52.544Z,49.23
2017-01-08T05:17:08.794Z,49.24
2017-01-08T05:19:21.197Z,49.25
2017-01-08T05:21:33.677Z,49.25
2017-01-08T05:23:48.096Z,49.26
2017-01-08T05:26:01.636Z,49.26
2017-01-08T05:28:09.052Z,49.26
2017-01-08T05:30:21.437Z,49.27
2017-01-08T05:32:35.850Z,49.28
2017-01-08T05:34:48.352Z,49.28
2017-01-08T05:37:00.812Z,49.29
2017-01-08T05:39:13.217Z,49.31
2017-01-08T05:41:25.685Z,49.32
2017-01-08T05:43:37.980Z,49.31
2017-01-08T05:45:50.734Z,49.35
2017-01-08T05:48:03.300Z,49.32
2017-01-08T05:50:16.318Z,49.32
2017-01-08T05:52:28.756Z,49.32
2017-01-08T05:54:45.754Z,49.32
2017-01-08T05:57:00.172Z,49.33
2017-01-08T05:59:13.618Z,49.33
2017-01-08T06:01:27.151Z,49.33
2017-01-08T06:03:39.577Z,49.34
2017-01-08T06:05:52.107Z,49.35
2017-01-08T06:08:05.540Z,49.35
2017-01-08T06:10:18.033Z,49.35
2017-01-08T06:12:30.346Z,49.37
2017-01-08T06:14:42.612Z,49.36
2017-01-08T06:16:55.105Z,49.36
2017-01-08T06:19:02.574Z,49.37
2017-01-08T06:21:15.092Z,49.37
2017-01-08T06:23:27.613Z,49.37
2017-01-08T06:25:40.647Z,49.37
2017-01-08T06:27:54.472Z,49.38
2017-01-08T06:30:06.823Z,49.39
2017-01-08T06:32:19.426Z,49.39
2017-01-08T06:34:31.997Z,49.4
2017-01-08T06:36:44.453Z,49.4
2017-01-08T06:38:54.187Z,49.41
2017-01-08T06:41:06.534Z,49.41
2017-01-08T06:43:20.868Z,49.42
2017-01-08T06:45:33.139Z,49.42
2017-01-08T06:47:40.548Z,49.42
2017-01-08T06:49:52.955Z,49.42
2017-01-08T06:52:06.413Z,49.43
2017-01-08T06:54:19.002Z,49.43
2017-01-08T06:56:31.463Z,49.42
2017-01-08T06:58:43.837Z,49.42
2017-01-08T07:00:51.253Z,49.42
2017-01-08T07:02:59.386Z,49.43
2017-01-08T07:05:11.823Z,49.44
2017-01-08T07:07:24.312Z,49.45
2017-01-08T07:09:40.655Z,49.45
2017-01-08T07:11:53.296Z,49.45
2017-01-08T07:14:05.798Z,49.45
2017-01-08T07:16:21.857Z,49.46
2017-01-08T07:18:34.268Z,49.45
2017-01-08T07:20:41.856Z,49.45
2017-01-08T07:22:54.318Z,49.45
2017-01-08T07:25:06.679Z,49.45
2017-01-08T07:27:19.195Z,49.44
2017-01-08T07:29:32.811Z,49.44
2017-01-08T07:31:45.176Z,49.45
2017-01-08T07:33:57.619Z,49.45
2017-01-08T07:36:10.146Z,49.45
2017-01-08T07:38:22.963Z,49.45
2017-01-08T07:40:35.505Z,49.44
2017-01-08T07:42:47.834Z,49.45
2017-01-08T07:45:00.126Z,49.45
2017-01-08T07:47:12.498Z,49.46
2017-01-08T07:49:25.047Z,49.46
2017-01-08T07:51:37.464Z,49.46
2017-01-08T07:53:51.153Z,49.45
2017-01-08T07:56:03.533Z,49.44
2017-01-08T07:58:15.786Z,49.44
2017-01-08T08:00:28.050Z,49.44
2017-01-08T08:02:40.365Z,49.43
2017-01-08T08:04:52.740Z,49.44
2017-01-08T08:07:05.224Z,49.45
2017-01-08T08:09:17.718Z,49.46
2017-01-08T08:11:25.553Z,49.45
2017-01-08T08:13:38.359Z,49.46
2017-01-08T08:15:46.929Z,49.47
2017-01-08T08:17:59.407Z,49.47
2017-01-08T08:20:13.712Z,49.47
2017-01-08T08:22:25.987Z,49.47
2017-01-08T08:24:38.331Z,49.48
2017-01-08T08:26:50.794Z,49.49
2017-01-08T08:29:03.089Z,49.49
2017-01-08T08:31:10.617Z,49.51
2017-01-08T08:33:24.054Z,49.53
2017-01-08T08:35:36.378Z,49.55
2017-01-08T08:37:48.668Z,49.57
2017-01-08T08:39:55.941Z,49.58
2017-01-08T08:42:08.311Z,49.59
2017-01-08T08:44:16.015Z,49.58
2017-01-08T08:46:23.451Z,49.58
2017-01-08T08:48:36.315Z,49.59
2017-01-08T08:50:43.869Z,49.58
2017-01-08T08:52:57.221Z,49.58
2017-01-08T08:55:09.568Z,49.59
2017-01-08T08:57:21.940Z,49.59
2017-01-08T08:59:34.641Z,49.61
2017-01-08T09:01:42.103Z,49.63
2017-01-08T09:03:54.618Z,49.64
2017-01-08T09:06:08.129Z,49.64
2017-01-08T09:08:24.658Z,49.65
2017-01-08T09:10:40.785Z,49.64
2017-01-08T09:12:54.798Z,49.63
2017-01-08T09:15:09.358Z,49.62
2017-01-08T09:17:23.870Z,49.63
2017-01-08T09:19:39.885Z,49.63
2017-01-08T09:21:54.205Z,49.64
2017-01-08T09:24:09.437Z,49.65
2017-01-08T09:26:24.686Z,49.67
2017-01-08T09:28:39.477Z,49.7
2017-01-08T09:30:48.543Z,49.72
2017-01-08T09:33:04.057Z,49.73
2017-01-08T09:35:13.147Z,49.74
2017-01-08T09:37:22.891Z,49.73
2017-01-08T09:39:38.092Z,49.73
2017-01-08T09:41:47.497Z,49.72
2017-01-08T09:44:03.219Z,49.71
2017-01-08T09:46:07.389Z,49.71
2017-01-08T09:48:22.557Z,49.73
2017-01-08T09:50:35.911Z,49.78
2017-01-08T09:52:51.786Z,49.8
2017-01-08T09:55:06.380Z,49.82
2017-01-08T09:57:20.048Z,49.79
2017-01-08T09:59:31.862Z,49.76
2017-01-08T10:01:46.546Z,49.73
2017-01-08T10:04:01.889Z,49.72
2017-01-08T10:06:16.106Z,49.78
2017-01-08T10:08:32.497Z,49.83
2017-01-08T10:10:46.798Z,49.87
2017-01-08T10:12:56.332Z,49.87
2017-01-08T10:15:11.553Z,49.86
2017-01-08T10:17:26.265Z,49.81
2017-01-08T10:19:38.773Z,49.75
2017-01-08T10:21:56.711Z,49.78
2017-01-08T10:24:10.453Z,49.87
2017-01-08T10:26:27.445Z,49.95
2017-01-08T10:28:45.171Z,49.94
2017-01-08T10:31:01.524Z,49.86
2017-01-08T10:33:17.049Z,49.79
2017-01-08T10:35:30.790Z,49.76
2017-01-08T10:37:46.874Z,49.76
2017-01-08T10:40:01.979Z,49.79
2017-01-08T10:42:13.947Z,49.83
2017-01-08T10:44:28.180Z,49.91
2017-01-08T10:46:37.182Z,49.99
2017-01-08T10:48:52.230Z,50.04
2017-01-08T10:51:10.822Z,50.08
2017-01-08T10:53:31.608Z,50.11
2017-01-08T10:55:46.629Z,50.13
2017-01-08T10:58:02.188Z,50.1
2017-01-08T11:00:17.261Z,50.08
2017-01-08T11:02:26.972Z,50.1
2017-01-08T11:04:35.790Z,50.16
2017-01-08T11:06:52.803Z,50.25
2017-01-08T11:09:01.963Z,50.33
2017-01-08T11:11:16.011Z,50.41
2017-01-08T11:13:32.352Z,50.47
2017-01-08T11:15:46.750Z,50.49
2017-01-08T11:18:01.306Z,50.51
2017-01-08T11:20:09.861Z,50.51
2017-01-08T11:22:25.156Z,50.51
2017-01-08T11:24:39.785Z,50.49
2017-01-08T11:26:55.471Z,50.49
2017-01-08T11:29:05.040Z,50.51
2017-01-08T11:31:19.593Z,50.54
2017-01-08T11:33:38.712Z,50.56
2017-01-08T11:35:59.177Z,50.58
2017-01-08T11:38:09.314Z,50.59
2017-01-08T11:40:23.924Z,50.58
2017-01-08T11:42:39.069Z,50.6
2017-01-08T11:44:54.172Z,50.64
2017-01-08T11:47:08.524Z,50.64
2017-01-08T11:49:25.262Z,50.63
2017-01-08T11:51:45.281Z,50.66
2017-01-08T11:54:06.464Z,50.68
2017-01-08T11:56:24.453Z,50.7
2017-01-08T11:58:40.442Z,50.74
2017-01-08T12:00:52.555Z,50.78
2017-01-08T12:03:13.332Z,50.77
2017-01-08T12:07:45.558Z,50.82
2017-01-08T12:10:11.478Z,50.82
2017-01-08T12:12:28.759Z,50.83
2017-01-08T12:14:49.843Z,50.83
2017-01-08T12:17:16.542Z,50.84
2017-01-08T12:19:36.558Z,50.86
2017-01-08T12:21:52.131Z,50.88
2017-01-08T12:24:10.976Z,50.89
2017-01-08T12:26:24.212Z,50.9
2017-01-08T12:30:49.907Z,50.9
2017-01-08T12:33:03.516Z,50.91
2017-01-08T12:35:17.608Z,50.93
2017-01-08T12:37:25.931Z,50.95
2017-01-08T12:39:44.179Z,50.94
2017-01-08T12:41:57.594Z,50.92
2017-01-08T12:44:04.980Z,50.91
2017-01-08T12:46:18.443Z,50.92
2017-01-08T12:48:33.569Z,50.94
2017-01-08T12:50:43.495Z,50.95
2017-01-08T12:52:58.439Z,50.95
2017-01-08T12:55:09.468Z,50.95
2017-01-08T12:57:22.692Z,50.99
2017-01-08T12:59:34.958Z,51.04
2017-01-08T13:01:44.750Z,51.06
2017-01-08T13:03:57.087Z,51.07
2017-01-08T13:06:10.054Z,51.11
2017-01-08T13:08:24.161Z,51.13
2017-01-08T13:10:36.557Z,51.15
2017-01-08T13:12:52.318Z,51.16
2017-01-08T13:15:07.797Z,51.21
2017-01-08T13:17:20.767Z,51.21
2017-01-08T13:19:28.405Z,51.21
2017-01-08T13:21:41.157Z,51.2
2017-01-08T13:23:55.386Z,51.2
2017-01-08T13:26:07.678Z,51.2
2017-01-08T13:28:20.596Z,51.2
2017-01-08T13:30:33.721Z,51.2
2017-01-08T13:32:42.405Z,51.2
2017-01-08T13:34:56.798Z,51.2
2017-01-08T13:37:10.457Z,51.22
2017-01-08T13:39:23.037Z,51.23
2017-01-08T13:41:37.198Z,51.22
2017-01-08T13:43:48.000Z,51.21
2017-01-08T13:45:56.801Z,51.22
2017-01-08T13:48:08.657Z,51.2
2017-01-08T13:50:24.875Z,51.16
2017-01-08T13:52:40.409Z,51.12
2017-01-08T13:54:44.373Z,51.1
2017-01-08T13:56:57.547Z,51.1
2017-01-08T13:59:05.919Z,51.1
2017-01-08T14:01:20.047Z,51.11
2017-01-08T14:03:32.436Z,51.14
2017-01-08T14:05:46.118Z,51.21
2017-01-08T14:07:53.449Z,51.25
2017-01-08T14:10:05.998Z,51.29
2017-01-08T14:12:18.637Z,51.31
2017-01-08T14:14:30.900Z,51.33
2017-01-08T14:16:38.457Z,51.34
2017-01-08T14:18:50.797Z,51.35
2017-01-08T14:21:02.984Z,51.38
2017-01-08T14:23:10.329Z,51.4
2017-01-08T14:25:22.837Z,51.43
2017-01-08T14:27:35.382Z,51.44
2017-01-08T14:29:47.630Z,51.46
2017-01-08T14:31:59.829Z,51.49
2017-01-08T14:34:12.130Z,51.5
2017-01-08T14:36:20.193Z,51.51
2017-01-08T14:38:32.459Z,51.51
2017-01-08T14:40:43.252Z,51.52
2017-01-08T14:42:55.574Z,51.54
2017-01-08T14:45:08.027Z,51.56
2017-01-08T14:47:20.258Z,51.58
2017-01-08T14:49:32.673Z,51.59
2017-01-08T14:51:44.929Z,51.6
2017-01-08T14:53:57.206Z,51.61
2017-01-08T14:56:09.694Z,51.61
2017-01-08T14:58:22.184Z,51.61
2017-01-08T15:00:35.032Z,51.61
2017-01-08T15:02:47.324Z,51.6
2017-01-08T15:04:59.871Z,51.6
2017-01-08T15:07:12.285Z,51.6
2017-01-08T15:09:24.564Z,51.61
2017-01-08T15:11:36.967Z,51.62
2017-01-08T15:13:49.370Z,51.62
2017-01-08T15:18:06.199Z,51.62
2017-01-08T15:20:19.773Z,51.61
2017-01-08T15:22:32.447Z,51.62
2017-01-08T15:24:40.884Z,51.63
2017-01-08T15:26:53.174Z,51.62
2017-01-08T15:29:06.732Z,51.62
2017-01-08T15:31:14.673Z,51.63
2017-01-08T15:33:27.278Z,51.62
2017-01-08T15:35:40.475Z,51.62
2017-01-08T15:37:54.952Z,51.62
2017-01-08T15:40:09.097Z,51.62
2017-01-08T15:42:21.638Z,51.61
2017-01-08T15:44:29.889Z,51.62
2017-01-08T15:46:43.110Z,51.62
2017-01-08T15:48:56.176Z,51.62
2017-01-08T15:51:03.839Z,51.62
2017-01-08T15:53:11.107Z,51.61
2017-01-08T15:55:23.473Z,51.61
2017-01-08T15:57:35.946Z,51.61
2017-01-08T15:59:48.475Z,51.61
2017-01-08T16:02:01.372Z,51.6
2017-01-08T16:04:14.181Z,51.59
2017-01-08T16:06:26.731Z,51.6
2017-01-08T16:08:39.356Z,51.6
2017-01-08T16:10:52.011Z,51.6
2017-01-08T16:13:04.731Z,51.6
2017-01-08T16:15:17.194Z,51.6
2017-01-08T16:17:30.056Z,51.6
2017-01-08T16:19:42.967Z,51.6
2017-01-08T16:21:55.399Z,51.59
2017-01-08T16:24:07.815Z,51.59
2017-01-08T16:26:20.555Z,51.59
2017-01-08T16:28:28.125Z,51.6
2017-01-08T16:30:40.727Z,51.61
2017-01-08T16:32:48.996Z,51.6
2017-01-08T16:35:02.250Z,51.59
2017-01-08T16:37:15.401Z,51.59
2017-01-08T16:39:23.282Z,51.59
2017-01-08T16:41:37.595Z,51.59
2017-01-08T16:43:51.865Z,51.59
2017-01-08T16:45:54.919Z,51.6
2017-01-08T16:48:07.454Z,51.6
2017-01-08T16:50:21.185Z,51.59
2017-01-08T16:52:34.942Z,51.59
2017-01-08T16:54:48.336Z,51.59
2017-01-08T16:56:57.222Z,51.58
2017-01-08T16:59:10.153Z,51.58
2017-01-08T17:01:25.931Z,51.57
2017-01-08T17:03:34.701Z,51.57
2017-01-08T17:05:47.542Z,51.57
2017-01-08T17:08:00.970Z,51.57
2017-01-08T17:10:15.338Z,51.57
2017-01-08T17:12:28.991Z,51.56
2017-01-08T17:14:42.571Z,51.57
2017-01-08T17:16:55.249Z,51.56
2017-01-08T17:19:11.353Z,51.55
2017-01-08T17:21:29.694Z,51.56
2017-01-08T17:23:42.177Z,51.56
2017-01-08T17:25:55.932Z,51.56
2017-01-08T17:28:09.575Z,51.56
2017-01-08T17:30:23.920Z,51.56
2017-01-08T17:32:36.587Z,51.57
2017-01-08T17:34:49.057Z,51.57
2017-01-08T17:36:58.656Z,51.56
2017-01-08T17:39:13.566Z,51.56
2017-01-08T17:41:27.463Z,51.56
2017-01-08T17:43:31.349Z,51.56
2017-01-08T17:45:39.856Z,51.56
2017-01-08T17:47:55.802Z,51.56
2017-01-08T17:50:10.581Z,51.57
2017-01-08T17:52:19.257Z,51.57
2017-01-08T17:54:27.520Z,51.57
2017-01-08T17:56:41.075Z,51.57
2017-01-08T17:58:54.101Z,51.57
2017-01-08T18:01:07.272Z,51.57
2017-01-08T18:03:20.502Z,51.56
2017-01-08T18:05:33.070Z,51.57
2017-01-08T18:07:42.433Z,51.56
2017-01-08T18:09:55.175Z,51.57
2017-01-08T18:12:07.795Z,51.57
2017-01-08T18:14:20.464Z,51.57
2017-01-08T18:16:28.325Z,51.57
2017-01-08T18:18:42.239Z,51.57
2017-01-08T18:20:54.598Z,51.57
2017-01-08T18:23:07.257Z,51.57
2017-01-08T18:25:19.912Z,51.57
2017-01-08T18:27:32.481Z,51.57
2017-01-08T18:29:44.876Z,51.57
2017-01-08T18:31:57.448Z,51.58
2017-01-08T18:34:09.902Z,51.58
2017-01-08T18:36:17.470Z,51.58
2017-01-08T18:38:29.832Z,51.58
2017-01-08T18:40:42.555Z,51.58
2017-01-08T18:42:56.184Z,51.58
2017-01-08T18:45:08.856Z,51.58
2017-01-08T18:47:21.421Z,51.58
2017-01-08T18:49:33.876Z,51.58
2017-01-08T18:51:46.377Z,51.58
2017-01-08T18:53:58.840Z,51.59
2017-01-08T18:56:11.654Z,51.59
2017-01-08T18:58:24.809Z,51.58
2017-01-08T19:00:37.482Z,51.58
2017-01-08T19:02:50.062Z,51.58
2017-01-08T19:05:02.450Z,51.58
2017-01-08T19:07:14.846Z,51.58
2017-01-08T19:09:27.189Z,51.58
2017-01-08T19:11:39.525Z,51.58
2017-01-08T19:13:52.553Z,51.58
2017-01-08T19:16:05.189Z,51.58
2017-01-08T19:18:17.496Z,51.58
2017-01-08T19:20:29.816Z,51.58
2017-01-08T19:22:38.364Z,51.58
2017-01-08T19:24:54.044Z,51.56
2017-01-08T19:27:06.597Z,51.58
2017-01-08T19:29:20.566Z,51.57
2017-01-08T19:31:35.545Z,51.56
2017-01-08T19:33:55.116Z,51.55
2017-01-08T19:36:20.357Z,51.56
2017-01-08T19:38:45.863Z,51.55
2017-01-08T19:41:30.806Z,51.55
2017-01-08T19:44:20.106Z,51.55
2017-01-08T19:47:13.382Z,51.55
2017-01-08T19:50:08.503Z,51.54
2017-01-08T19:53:01.923Z,51.54
2017-01-08T19:55:58.955Z,51.54
2017-01-08T19:58:59.922Z,51.53
2017-01-08T20:01:47.728Z,51.53
2017-01-08T20:04:38.680Z,51.52
2017-01-08T20:07:22.443Z,51.51
2017-01-08T20:09:39.513Z,51.51
2017-01-08T20:11:53.322Z,51.51
2017-01-08T20:14:09.011Z,51.51
2017-01-08T20:16:24.745Z,51.51
2017-01-08T20:18:39.747Z,51.51
2017-01-08T20:21:20.303Z,51.5
2017-01-08T20:23:46.629Z,51.5
2017-01-08T20:26:01.004Z,51.49
2017-01-08T20:28:18.371Z,51.49
2017-01-08T20:30:36.774Z,51.49
2017-01-08T20:32:52.112Z,51.48
2017-01-08T20:35:31.717Z,51.48
2017-01-08T20:37:46.595Z,51.48
2017-01-08T20:40:21.462Z,51.5
2017-01-08T20:43:15.243Z,51.5
2017-01-08T20:45:57.450Z,51.49
2017-01-08T20:48:46.382Z,51.49
2017-01-08T20:51:35.742Z,51.5
2017-01-08T20:54:20.440Z,51.5
2017-01-08T20:57:12.906Z,51.51
2017-01-08T20:59:44.481Z,51.51
2017-01-08T21:02:25.657Z,51.52
2017-01-08T21:04:53.337Z,51.53
2017-01-08T21:07:19.888Z,51.54
2017-01-08T21:09:48.116Z,51.54
2017-01-08T21:12:36.431Z,51.54
2017-01-08T21:15:25.944Z,51.54
2017-01-08T21:18:20.343Z,51.53
2017-01-08T21:20:43.691Z,51.53
2017-01-08T21:23:14.764Z,51.53
2017-01-08T21:25:50.986Z,51.54
2017-01-08T21:28:30.054Z,51.54
2017-01-08T21:31:05.251Z,51.55
2017-01-08T21:33:29.574Z,51.56
2017-01-08T21:35:59.534Z,51.55
2017-01-08T21:38:36.392Z,51.56
2017-01-08T21:41:11.918Z,51.57
2017-01-08T21:43:46.094Z,51.58
2017-01-08T21:46:24.422Z,51.58
2017-01-08T21:48:49.901Z,51.59
2017-01-08T21:50:57.546Z,51.58
2017-01-08T21:53:37.581Z,51.59
2017-01-08T21:56:31.527Z,51.59
2017-01-08T21:58:55.149Z,51.61
2017-01-08T22:01:07.828Z,51.61
2017-01-08T22:03:23.164Z,51.62
2017-01-08T22:05:40.393Z,51.62
2017-01-08T22:08:07.714Z,51.62
2017-01-08T22:10:30.109Z,51.62
2017-01-08T22:12:50.574Z,51.63
2017-01-08T22:15:12.746Z,51.63
2017-01-08T22:17:36.556Z,51.63
2017-01-08T22:19:52.126Z,51.64
2017-01-08T22:22:07.042Z,51.65
2017-01-08T22:24:21.700Z,51.65
2017-01-08T22:26:42.110Z,51.65
2017-01-08T22:28:58.517Z,51.66
2017-01-08T22:31:08.164Z,51.66
2017-01-08T22:33:27.075Z,51.66
2017-01-08T22:35:35.624Z,51.67
2017-01-08T22:38:03.459Z,51.67
2017-01-08T22:40:51.333Z,51.68
2017-01-08T22:43:38.306Z,51.68
2017-01-08T22:46:02.312Z,51.69
2017-01-08T22:48:26.383Z,51.69
2017-01-08T22:50:42.859Z,51.69
2017-01-08T22:53:00.854Z,51.69
2017-01-08T22:55:16.464Z,51.7
2017-01-08T22:57:33.033Z,51.71
2017-01-08T22:59:53.142Z,51.71
2017-01-08T23:02:17.674Z,51.71
2017-01-08T23:04:34.685Z,51.71
2017-01-08T23:06:46.983Z,51.72
2017-01-08T23:09:05.635Z,51.72
2017-01-08T23:11:27.755Z,51.72
2017-01-08T23:13:53.625Z,51.72
2017-01-08T23:16:12.235Z,51.72
2017-01-08T23:18:21.648Z,51.72
2017-01-08T23:20:35.330Z,51.74
2017-01-08T23:22:57.310Z,51.74
2017-01-08T23:25:10.989Z,51.74
2017-01-08T23:27:23.283Z,51.74
2017-01-08T23:29:30.688Z,51.73
2017-01-08T23:31:42.999Z,51.74
2017-01-08T23:33:53.579Z,51.74
2017-01-08T23:36:07.021Z,51.75
2017-01-08T23:38:19.468Z,51.73
2017-01-08T23:40:32.042Z,51.75
2017-01-08T23:42:39.646Z,51.74
2017-01-08T23:44:52.062Z,51.74
2017-01-08T23:47:04.772Z,51.74
2017-01-08T23:49:12.192Z,51.73
2017-01-08T23:51:19.790Z,51.73
2017-01-08T23:53:32.214Z,51.73
2017-01-08T23:55:44.566Z,51.73
2017-01-08T23:57:56.937Z,51.73
